Decoded Metar for LFRL (LANVEDOC in FRANCE) (IATA:N/A) | Meteo·Mobile Aviation Weather
aviador You're here:

LFRL Decoded Metar

LANVEDOC in FRANCE
Report Time2019-01-19 05:30:00
UTC Time2019-01-19 05:55:14
Flight Rules vfr VFR
Wind230° at 05 kt
W.Decomp.*RWY 23: 5.0 kt HW 0.3 kt RCW
W.Rank230° ranks 5
Current wind is below 230° avg. (10.1)
Visibility9999 m
Phenomena:N/A
Clouds:N/A
Expected CloudBase > 800 ft AGL from Temp-Dew spread
CeilingNone
Temp07°C (ISA -7)
Dew Point05°C (87% RH)
AAT4.1°C
QNH1007 hPa
Density Alt-305 ft
Elevation269 ft
Report Wrong Elevation
Raw Report
METAR LFRL 190530Z AUTO 23005KT 9999 ///TCU 07/05 Q1007=

Extra information for LFRL:More info

Metar Taf Metar & Taf Last 4 Metars F.Rules Stats Wind Profile Meteogram Temp Stats Airport Information Weather charts Add Link Nearby VenuesMetar ALERT Operation Metar Decoded Social comments